createdAt,value
2022-12-12T00:00:52.184Z,0.84
2022-12-12T00:03:18.965Z,0.82
2022-12-12T00:05:45.534Z,0.84
2022-12-12T00:08:12.026Z,0.84
2022-12-12T00:10:38.927Z,0.83
2022-12-12T00:13:05.387Z,0.84
2022-12-12T00:15:31.814Z,0.84
2022-12-12T00:17:58.218Z,0.84
2022-12-12T00:20:24.651Z,0.85
2022-12-12T00:22:51.582Z,0.84
2022-12-12T00:25:18.053Z,0.83
2022-12-12T00:27:44.482Z,0.84
2022-12-12T00:30:11.507Z,0.82
2022-12-12T00:32:38.028Z,0.85
2022-12-12T00:35:04.986Z,0.82
2022-12-12T00:37:31.381Z,0.81
2022-12-12T00:39:57.932Z,0.80
2022-12-12T00:42:27.181Z,0.81
2022-12-12T00:44:53.535Z,0.81
2022-12-12T00:47:19.933Z,0.80
2022-12-12T00:49:46.331Z,0.80
2022-12-12T00:52:12.705Z,0.80
2022-12-12T00:54:39.213Z,0.80
2022-12-12T00:57:05.570Z,0.80
2022-12-12T00:59:31.995Z,0.78
2022-12-12T01:01:58.493Z,0.78
2022-12-12T01:04:24.964Z,0.77
2022-12-12T01:06:51.368Z,0.77
2022-12-12T01:09:17.838Z,0.76
2022-12-12T01:11:44.702Z,0.76
2022-12-12T01:14:11.319Z,0.76
2022-12-12T01:16:37.783Z,0.76
2022-12-12T01:19:04.282Z,0.76
2022-12-12T01:21:30.661Z,0.76
2022-12-12T01:23:57.105Z,0.76
2022-12-12T01:26:25.384Z,0.77
2022-12-12T01:28:52.899Z,0.76
2022-12-12T01:31:19.783Z,0.76
2022-12-12T01:33:46.558Z,0.75
2022-12-12T01:36:17.867Z,0.76
2022-12-12T01:38:49.484Z,0.75
2022-12-12T01:41:16.725Z,0.73
2022-12-12T01:43:43.381Z,0.73
2022-12-12T01:46:22.222Z,0.76
2022-12-12T01:48:54.751Z,0.72
2022-12-12T01:51:24.801Z,0.71
2022-12-12T01:53:57.739Z,0.70
2022-12-12T01:56:25.058Z,0.69
2022-12-12T01:58:53.954Z,0.68
2022-12-12T02:01:20.916Z,0.68
2022-12-12T02:03:49.004Z,0.69
2022-12-12T02:06:20.234Z,0.69
2022-12-12T02:08:48.634Z,0.69
2022-12-12T02:11:14.989Z,0.70
2022-12-12T02:13:41.666Z,0.69
2022-12-12T02:16:26.468Z,0.71
2022-12-12T02:19:10.855Z,0.71
2022-12-12T02:21:50.946Z,0.70
2022-12-12T02:24:26.100Z,0.70
2022-12-12T02:27:23.051Z,0.71
2022-12-12T02:29:58.548Z,0.69
2022-12-12T02:32:43.843Z,0.70
2022-12-12T02:35:27.796Z,0.71
2022-12-12T02:38:07.159Z,0.71
2022-12-12T02:40:52.186Z,0.72
2022-12-12T02:43:34.638Z,0.71
2022-12-12T02:46:07.725Z,0.69
2022-12-12T02:48:44.941Z,0.67
2022-12-12T02:51:13.940Z,0.64
2022-12-12T02:53:40.453Z,0.60
2022-12-12T02:56:29.344Z,0.57
2022-12-12T02:58:55.995Z,0.57
2022-12-12T03:01:48.540Z,0.56
2022-12-12T03:04:46.347Z,0.57
2022-12-12T03:07:42.334Z,0.57
2022-12-12T03:10:13.504Z,0.56
2022-12-12T03:12:53.644Z,0.57
2022-12-12T03:15:26.497Z,0.57
2022-12-12T03:18:15.825Z,0.55
2022-12-12T03:20:53.603Z,0.57
2022-12-12T03:23:28.036Z,0.58
2022-12-12T03:26:02.689Z,0.58
2022-12-12T03:28:39.565Z,0.57
2022-12-12T03:31:09.885Z,0.56
2022-12-12T03:33:43.462Z,0.54
2022-12-12T03:36:10.002Z,0.51
2022-12-12T03:38:41.519Z,0.50
2022-12-12T03:41:18.977Z,0.50
2022-12-12T03:43:55.953Z,0.48
2022-12-12T03:46:44.022Z,0.48
2022-12-12T03:49:33.930Z,0.50
2022-12-12T03:52:11.827Z,0.48
2022-12-12T03:54:46.644Z,0.48
2022-12-12T03:57:23.529Z,0.44
2022-12-12T04:00:02.756Z,0.42
2022-12-12T04:02:35.128Z,0.40
2022-12-12T04:05:22.143Z,0.39
2022-12-12T04:07:54.913Z,0.36
2022-12-12T04:10:43.588Z,0.32
2022-12-12T04:13:23.468Z,0.27
2022-12-12T04:16:13.807Z,0.28
2022-12-12T04:18:57.222Z,0.27
2022-12-12T04:22:00.940Z,0.28
2022-12-12T04:24:41.523Z,0.26
2022-12-12T04:27:19.068Z,0.21
2022-12-12T04:30:18.360Z,0.22
2022-12-12T04:33:09.188Z,0.20
2022-12-12T04:35:46.196Z,0.22
2022-12-12T04:38:21.484Z,0.19
2022-12-12T04:40:51.967Z,0.17
2022-12-12T04:43:33.269Z,0.14
2022-12-12T04:46:06.645Z,0.10
2022-12-12T04:48:43.936Z,0.05
2022-12-12T04:51:14.957Z,0.00
2022-12-12T04:53:48.576Z,-0.06
2022-12-12T04:56:19.643Z,-0.13
2022-12-12T04:58:46.171Z,-0.18
2022-12-12T05:01:53.178Z,-0.20
2022-12-12T05:04:49.139Z,-0.27
2022-12-12T05:07:23.498Z,-0.32
2022-12-12T05:09:50.542Z,-0.37
2022-12-12T05:12:18.225Z,-0.41
2022-12-12T05:14:44.763Z,-0.44
2022-12-12T05:17:16.723Z,-0.47
2022-12-12T05:19:43.304Z,-0.52
2022-12-12T05:22:09.886Z,-0.56
2022-12-12T05:24:36.355Z,-0.57
2022-12-12T05:27:03.775Z,-0.60
2022-12-12T05:29:32.215Z,-0.62
2022-12-12T05:31:59.074Z,-0.63
2022-12-12T05:34:26.030Z,-0.65
2022-12-12T05:36:52.862Z,-0.67
2022-12-12T05:39:19.482Z,-0.69
2022-12-12T05:41:46.448Z,-0.71
2022-12-12T05:44:13.005Z,-0.74
2022-12-12T05:46:39.621Z,-0.75
2022-12-12T05:49:06.174Z,-0.77
2022-12-12T05:51:32.796Z,-0.78
2022-12-12T05:54:00.231Z,-0.79
2022-12-12T05:56:26.846Z,-0.83
2022-12-12T05:58:53.391Z,-0.85
2022-12-12T06:01:19.853Z,-0.89
2022-12-12T06:03:46.670Z,-0.90
2022-12-12T06:06:13.251Z,-0.91
2022-12-12T06:08:39.932Z,-0.90
2022-12-12T06:11:07.724Z,-0.92
2022-12-12T06:13:34.698Z,-0.92
2022-12-12T06:16:07.539Z,-0.94
2022-12-12T06:18:34.493Z,-0.96
2022-12-12T06:21:09.651Z,-0.97
2022-12-12T06:23:37.674Z,-0.98
2022-12-12T06:26:05.339Z,-1.00
2022-12-12T06:28:31.863Z,-1.03
2022-12-12T06:30:58.923Z,-1.03
2022-12-12T06:33:27.483Z,-1.03
2022-12-12T06:36:17.881Z,-1.03
2022-12-12T06:38:44.574Z,-1.05
2022-12-12T06:41:14.273Z,-1.05
2022-12-12T06:43:41.957Z,-1.07
2022-12-12T06:46:14.098Z,-1.08
2022-12-12T06:48:40.779Z,-1.12
2022-12-12T06:51:10.045Z,-1.12
2022-12-12T06:53:37.430Z,-1.13
2022-12-12T06:56:14.339Z,-1.16
2022-12-12T06:58:41.075Z,-1.20
2022-12-12T07:01:08.637Z,-1.23
2022-12-12T07:03:35.786Z,-1.23
2022-12-12T07:06:02.640Z,-1.25
2022-12-12T07:08:29.279Z,-1.25
2022-12-12T07:10:57.026Z,-1.26
2022-12-12T07:13:23.650Z,-1.29
2022-12-12T07:15:50.871Z,-1.31
2022-12-12T07:18:18.951Z,-1.31
2022-12-12T07:20:46.647Z,-1.32
2022-12-12T07:23:14.115Z,-1.33
2022-12-12T07:25:42.161Z,-1.36
2022-12-12T07:28:13.697Z,-1.37
2022-12-12T07:30:45.869Z,-1.38
2022-12-12T07:33:14.276Z,-1.40
2022-12-12T07:35:41.883Z,-1.41
2022-12-12T07:38:10.315Z,-1.41
2022-12-12T07:40:37.025Z,-1.43
2022-12-12T07:43:04.456Z,-1.42
2022-12-12T07:45:31.588Z,-1.46
2022-12-12T07:47:58.426Z,-1.48
2022-12-12T07:50:28.201Z,-1.48
2022-12-12T07:52:54.985Z,-1.47
2022-12-12T07:55:21.776Z,-1.48
2022-12-12T07:57:49.143Z,-1.48
2022-12-12T08:00:16.653Z,-1.48
2022-12-12T08:02:44.012Z,-1.50
2022-12-12T08:05:10.810Z,-1.54
2022-12-12T08:07:37.791Z,-1.54
2022-12-12T08:10:05.894Z,-1.54
2022-12-12T08:12:32.910Z,-1.55
2022-12-12T08:14:59.586Z,-1.55
2022-12-12T08:17:26.523Z,-1.55
2022-12-12T08:19:53.560Z,-1.54
2022-12-12T08:22:20.504Z,-1.54
2022-12-12T08:24:49.239Z,-1.54
2022-12-12T08:27:16.151Z,-1.52
2022-12-12T08:29:43.723Z,-1.52
2022-12-12T08:32:10.501Z,-1.51
2022-12-12T08:34:37.014Z,-1.51
2022-12-12T08:37:03.774Z,-1.50
2022-12-12T08:39:30.611Z,-1.51
2022-12-12T08:41:57.421Z,-1.52
2022-12-12T08:44:23.953Z,-1.51
2022-12-12T08:46:50.790Z,-1.50
2022-12-12T08:49:17.470Z,-1.48
2022-12-12T08:51:44.085Z,-1.45
2022-12-12T08:54:12.711Z,-1.41
2022-12-12T08:56:40.335Z,-1.40
2022-12-12T08:59:06.777Z,-1.37
2022-12-12T09:01:33.388Z,-1.39
2022-12-12T09:03:59.890Z,-1.40
2022-12-12T09:06:26.764Z,-1.40
2022-12-12T09:08:54.850Z,-1.38
2022-12-12T09:11:21.452Z,-1.34
2022-12-12T09:13:47.989Z,-1.32
2022-12-12T09:16:14.914Z,-1.31
2022-12-12T09:18:48.465Z,-1.28
2022-12-12T09:21:15.990Z,-1.26
2022-12-12T09:23:42.510Z,-1.21
2022-12-12T09:26:10.411Z,-1.19
2022-12-12T09:28:37.592Z,-1.20
2022-12-12T09:31:09.188Z,-1.18
2022-12-12T09:33:36.245Z,-1.12
2022-12-12T09:36:05.693Z,-1.07
2022-12-12T09:38:32.643Z,-1.07
2022-12-12T09:41:02.777Z,-1.07
2022-12-12T09:43:36.051Z,-1.05
2022-12-12T09:46:04.963Z,-0.97
2022-12-12T09:48:42.078Z,-0.91
2022-12-12T09:51:10.695Z,-0.89
2022-12-12T09:53:40.111Z,-0.88
2022-12-12T09:56:13.803Z,-0.84
2022-12-12T09:59:06.290Z,-0.80
2022-12-12T10:01:36.918Z,-0.76
2022-12-12T10:04:29.855Z,-0.70
2022-12-12T10:07:06.955Z,-0.64
2022-12-12T10:09:56.232Z,-0.57
2022-12-12T10:12:23.841Z,-0.57
2022-12-12T10:15:07.369Z,-0.53
2022-12-12T10:17:45.287Z,-0.49
2022-12-12T10:20:20.794Z,-0.51
2022-12-12T10:22:52.136Z,-0.52
2022-12-12T10:25:40.655Z,-0.50
2022-12-12T10:28:18.987Z,-0.48
2022-12-12T10:30:57.738Z,-0.49
2022-12-12T10:33:56.264Z,-0.50
2022-12-12T10:36:41.592Z,-0.49
2022-12-12T10:39:31.448Z,-0.48
2022-12-12T10:42:45.557Z,-0.46
2022-12-12T10:45:38.701Z,-0.40
2022-12-12T10:48:05.757Z,-0.36
2022-12-12T10:50:36.181Z,-0.34
2022-12-12T10:53:05.312Z,-0.35
2022-12-12T10:55:53.928Z,-0.36
2022-12-12T10:58:27.999Z,-0.36
2022-12-12T11:01:03.275Z,-0.37
2022-12-12T11:03:41.140Z,-0.36
2022-12-12T11:06:12.544Z,-0.37
2022-12-12T11:08:39.273Z,-0.36
2022-12-12T11:11:19.595Z,-0.31
2022-12-12T11:13:51.693Z,-0.29
2022-12-12T11:16:23.908Z,-0.27
2022-12-12T11:19:05.926Z,-0.24
2022-12-12T11:21:40.364Z,-0.24
2022-12-12T11:24:12.998Z,-0.23
2022-12-12T11:26:49.220Z,-0.22
2022-12-12T11:29:46.709Z,-0.19
2022-12-12T11:32:20.481Z,-0.21
2022-12-12T11:34:54.056Z,-0.18
2022-12-12T11:37:24.554Z,-0.19
2022-12-12T11:39:53.199Z,-0.22
2022-12-12T11:42:26.702Z,-0.18
2022-12-12T11:45:01.013Z,-0.18
2022-12-12T11:47:35.804Z,-0.18
2022-12-12T11:50:06.356Z,-0.18
2022-12-12T11:52:37.962Z,-0.17
2022-12-12T11:55:13.711Z,-0.16
2022-12-12T11:58:14.419Z,-0.13
2022-12-12T12:00:49.970Z,-0.13
2022-12-12T12:03:29.321Z,-0.13
2022-12-12T12:06:28.076Z,-0.12
2022-12-12T12:09:03.655Z,-0.10
2022-12-12T12:12:05.592Z,-0.10
2022-12-12T12:15:14.306Z,-0.09
2022-12-12T12:17:53.101Z,-0.07
2022-12-12T12:20:41.069Z,-0.07
2022-12-12T12:23:16.775Z,-0.04
2022-12-12T12:26:08.139Z,-0.03
2022-12-12T12:28:44.731Z,-0.02
2022-12-12T12:31:27.451Z,-0.02
2022-12-12T12:34:10.337Z,-0.02
2022-12-12T12:36:59.311Z,0.01
2022-12-12T12:39:34.986Z,0.00
2022-12-12T12:42:20.020Z,0.02
2022-12-12T12:45:03.212Z,0.02
2022-12-12T12:47:54.602Z,0.01
2022-12-12T12:50:34.796Z,-0.01
2022-12-12T12:53:27.132Z,-0.01
2022-12-12T12:55:57.599Z,-0.02
2022-12-12T12:58:36.146Z,0.00
2022-12-12T13:01:09.355Z,0.00
2022-12-12T13:03:44.666Z,-0.01
2022-12-12T13:06:18.694Z,-0.02
2022-12-12T13:09:03.381Z,0.00
2022-12-12T13:11:41.140Z,0.00
2022-12-12T13:14:25.541Z,-0.01
2022-12-12T13:16:56.014Z,-0.01
2022-12-12T13:19:35.791Z,0.00
2022-12-12T13:22:43.879Z,-0.01
2022-12-12T13:25:44.071Z,-0.02
2022-12-12T13:28:28.257Z,-0.02
2022-12-12T13:31:09.635Z,-0.03
2022-12-12T13:33:51.957Z,-0.03
2022-12-12T13:36:39.420Z,-0.04
2022-12-12T13:39:09.157Z,-0.05
2022-12-12T13:41:56.167Z,-0.05
2022-12-12T13:44:46.604Z,-0.04
2022-12-12T13:47:22.788Z,-0.04
2022-12-12T13:50:08.186Z,-0.05
2022-12-12T13:52:43.129Z,-0.06
2022-12-12T13:55:18.994Z,-0.07
2022-12-12T13:58:05.810Z,-0.06
2022-12-12T14:00:35.368Z,-0.08
2022-12-12T14:03:08.118Z,-0.08
2022-12-12T14:05:46.809Z,-0.08
2022-12-12T14:08:16.097Z,-0.10
2022-12-12T14:10:45.669Z,-0.11
2022-12-12T14:13:19.012Z,-0.13
2022-12-12T14:15:48.296Z,-0.14
2022-12-12T14:18:29.772Z,-0.14
2022-12-12T14:21:20.787Z,-0.16
2022-12-12T14:23:51.882Z,-0.18
2022-12-12T14:26:27.662Z,-0.19
2022-12-12T14:29:16.387Z,-0.23
2022-12-12T14:32:08.075Z,-0.25
2022-12-12T14:34:34.462Z,-0.26
2022-12-12T14:37:32.302Z,-0.27
2022-12-12T14:40:22.969Z,-0.30
2022-12-12T14:43:17.803Z,-0.34
2022-12-12T14:45:58.180Z,-0.36
2022-12-12T14:48:37.584Z,-0.39
2022-12-12T14:51:10.312Z,-0.42
2022-12-12T14:53:36.954Z,-0.45
2022-12-12T14:56:10.320Z,-0.47
2022-12-12T14:58:41.339Z,-0.49
2022-12-12T15:01:08.957Z,-0.53
2022-12-12T15:03:41.602Z,-0.56
2022-12-12T15:06:23.995Z,-0.59
2022-12-12T15:08:52.260Z,-0.63
2022-12-12T15:11:23.758Z,-0.64
2022-12-12T15:13:57.867Z,-0.67
2022-12-12T15:16:49.379Z,-0.71
2022-12-12T15:19:23.639Z,-0.73
2022-12-12T15:21:50.589Z,-0.78
2022-12-12T15:24:29.515Z,-0.80
2022-12-12T15:26:58.893Z,-0.85
2022-12-12T15:29:31.097Z,-0.88
2022-12-12T15:32:02.575Z,-0.91
2022-12-12T15:34:32.378Z,-0.91
2022-12-12T15:37:17.823Z,-0.94
2022-12-12T15:39:44.949Z,-0.98
2022-12-12T15:42:15.206Z,-1.01
2022-12-12T15:44:47.184Z,-1.02
2022-12-12T15:47:15.024Z,-1.04
2022-12-12T15:49:46.886Z,-1.07
2022-12-12T15:52:21.243Z,-1.08
2022-12-12T15:54:51.839Z,-1.12
2022-12-12T15:57:29.493Z,-1.15
2022-12-12T16:00:04.831Z,-1.18
2022-12-12T16:02:33.543Z,-1.21
2022-12-12T16:05:30.310Z,-1.23
2022-12-12T16:08:31.313Z,-1.26
2022-12-12T16:11:06.299Z,-1.29
2022-12-12T16:13:42.028Z,-1.31
2022-12-12T16:16:35.074Z,-1.32
2022-12-12T16:19:02.346Z,-1.36
2022-12-12T16:21:30.225Z,-1.38
2022-12-12T16:24:10.959Z,-1.38
2022-12-12T16:26:37.436Z,-1.42
2022-12-12T16:29:04.551Z,-1.45
2022-12-12T16:31:31.108Z,-1.47
2022-12-12T16:34:03.311Z,-1.48
2022-12-12T16:36:30.325Z,-1.50
2022-12-12T16:38:56.934Z,-1.53
2022-12-12T16:41:23.442Z,-1.55
2022-12-12T16:43:49.857Z,-1.56
2022-12-12T16:46:26.663Z,-1.56
2022-12-12T16:48:53.524Z,-1.58
2022-12-12T16:51:27.247Z,-1.58
2022-12-12T16:53:55.330Z,-1.61
2022-12-12T16:56:21.759Z,-1.63
2022-12-12T16:58:48.194Z,-1.65
2022-12-12T17:01:16.978Z,-1.66
2022-12-12T17:03:43.514Z,-1.68
2022-12-12T17:06:09.987Z,-1.69
2022-12-12T17:08:38.418Z,-1.71
2022-12-12T17:11:10.004Z,-1.73
2022-12-12T17:13:37.567Z,-1.74
2022-12-12T17:16:04.233Z,-1.75
2022-12-12T17:18:30.766Z,-1.76
2022-12-12T17:20:57.413Z,-1.78
2022-12-12T17:23:29.838Z,-1.80
2022-12-12T17:26:02.897Z,-1.81
2022-12-12T17:28:30.835Z,-1.82
2022-12-12T17:30:57.456Z,-1.86
2022-12-12T17:33:24.022Z,-1.87
2022-12-12T17:36:16.865Z,-1.87
2022-12-12T17:38:43.274Z,-1.88
2022-12-12T17:41:10.824Z,-1.89
2022-12-12T17:43:38.008Z,-1.91
2022-12-12T17:46:16.603Z,-1.92
2022-12-12T17:48:48.424Z,-1.94
2022-12-12T17:51:22.022Z,-1.95
2022-12-12T17:53:51.082Z,-1.97
2022-12-12T17:56:20.986Z,-1.99
2022-12-12T17:58:49.403Z,-2.01
2022-12-12T18:01:21.705Z,-2.02
2022-12-12T18:03:48.765Z,-2.04
2022-12-12T18:06:16.555Z,-2.05
2022-12-12T18:08:43.645Z,-2.06
2022-12-12T18:11:13.839Z,-2.08
2022-12-12T18:13:41.870Z,-2.10
2022-12-12T18:16:11.191Z,-2.11
2022-12-12T18:18:37.839Z,-2.12
2022-12-12T18:21:10.561Z,-2.13
2022-12-12T18:23:39.384Z,-2.16
2022-12-12T18:26:21.805Z,-2.16
2022-12-12T18:28:49.735Z,-2.20
2022-12-12T18:31:16.284Z,-2.21
2022-12-12T18:33:42.767Z,-2.23
2022-12-12T18:36:14.898Z,-2.22
2022-12-12T18:38:47.328Z,-2.26
2022-12-12T18:41:15.817Z,-2.27
2022-12-12T18:43:42.912Z,-2.28
2022-12-12T18:46:14.279Z,-2.28
2022-12-12T18:48:42.836Z,-2.30
2022-12-12T18:51:13.021Z,-2.31
2022-12-12T18:53:43.127Z,-2.32
2022-12-12T18:56:15.158Z,-2.33
2022-12-12T18:58:41.628Z,-2.34
2022-12-12T19:01:12.240Z,-2.37
2022-12-12T19:03:40.697Z,-2.39
2022-12-12T19:06:15.917Z,-2.39
2022-12-12T19:08:43.252Z,-2.39
2022-12-12T19:11:10.945Z,-2.43
2022-12-12T19:13:38.069Z,-2.44
2022-12-12T19:16:12.158Z,-2.44
2022-12-12T19:18:39.047Z,-2.49
2022-12-12T19:21:10.774Z,-2.50
2022-12-12T19:23:37.884Z,-2.52
2022-12-12T19:26:10.427Z,-2.53
2022-12-12T19:28:37.182Z,-2.54
2022-12-12T19:31:08.823Z,-2.53
2022-12-12T19:33:35.669Z,-2.54
2022-12-12T19:36:11.856Z,-2.52
2022-12-12T19:38:38.449Z,-2.53
2022-12-12T19:41:09.707Z,-2.53
2022-12-12T19:43:36.380Z,-2.55
2022-12-12T19:46:15.533Z,-2.56
2022-12-12T19:48:42.865Z,-2.58
2022-12-12T19:51:16.026Z,-2.58
2022-12-12T19:53:45.314Z,-2.58
2022-12-12T19:56:14.337Z,-2.60
2022-12-12T19:58:41.450Z,-2.63
2022-12-12T20:01:11.410Z,-2.67
2022-12-12T20:03:39.148Z,-2.68
2022-12-12T20:06:08.875Z,-2.68
2022-12-12T20:08:36.698Z,-2.68
2022-12-12T20:11:07.319Z,-2.68
2022-12-12T20:13:34.438Z,-2.69
2022-12-12T20:16:08.775Z,-2.70
2022-12-12T20:18:35.672Z,-2.71
2022-12-12T20:21:03.433Z,-2.72
2022-12-12T20:23:31.696Z,-2.76
2022-12-12T20:25:58.904Z,-2.76
2022-12-12T20:28:25.345Z,-2.79
2022-12-12T20:31:03.667Z,-2.80
2022-12-12T20:33:30.561Z,-2.83
2022-12-12T20:36:20.773Z,-2.85
2022-12-12T20:38:48.388Z,-2.90
2022-12-12T20:41:21.427Z,-2.89
2022-12-12T20:43:48.164Z,-2.91
2022-12-12T20:46:20.339Z,-2.91
2022-12-12T20:48:48.384Z,-2.92
2022-12-12T20:51:52.884Z,-2.92
2022-12-12T20:54:06.192Z,-2.92
2022-12-12T20:56:33.427Z,-2.92
2022-12-12T20:59:02.190Z,-2.94
2022-12-12T21:01:31.471Z,-2.95
2022-12-12T21:03:59.857Z,-2.96
2022-12-12T21:06:30.592Z,-2.98
2022-12-12T21:09:00.671Z,-2.99
2022-12-12T21:11:27.427Z,-3.00
2022-12-12T21:13:54.004Z,-3.03
2022-12-12T21:16:26.592Z,-3.02
2022-12-12T21:18:56.790Z,-3.02
2022-12-12T21:21:24.965Z,-3.02
2022-12-12T21:23:52.244Z,-3.07
2022-12-12T21:26:28.254Z,-3.09
2022-12-12T21:28:56.035Z,-3.10
2022-12-12T21:31:26.260Z,-3.09
2022-12-12T21:33:52.903Z,-3.09
2022-12-12T21:36:22.332Z,-3.11
2022-12-12T21:38:50.070Z,-3.13
2022-12-12T21:41:19.427Z,-3.16
2022-12-12T21:43:46.565Z,-3.17
2022-12-12T21:46:19.166Z,-3.17
2022-12-12T21:48:45.722Z,-3.20
2022-12-12T21:51:16.402Z,-3.19
2022-12-12T21:53:43.498Z,-3.21
2022-12-12T21:56:18.439Z,-3.25
2022-12-12T21:58:46.330Z,-3.25
2022-12-12T22:01:15.221Z,-3.25
2022-12-12T22:03:45.926Z,-3.26
2022-12-12T22:06:23.662Z,-3.27
2022-12-12T22:08:50.627Z,-3.29
2022-12-12T22:11:33.917Z,-3.28
2022-12-12T22:14:06.674Z,-3.30
2022-12-12T22:16:34.959Z,-3.34
2022-12-12T22:19:07.305Z,-3.35
2022-12-12T22:21:35.317Z,-3.35
2022-12-12T22:24:02.675Z,-3.37
2022-12-12T22:26:37.620Z,-3.38
2022-12-12T22:29:06.949Z,-3.39
2022-12-12T22:31:37.744Z,-3.39
2022-12-12T22:34:07.623Z,-3.41
2022-12-12T22:36:37.092Z,-3.44
2022-12-12T22:39:06.275Z,-3.45
2022-12-12T22:41:32.789Z,-3.45
2022-12-12T22:44:03.472Z,-3.49
2022-12-12T22:46:30.823Z,-3.48
2022-12-12T22:48:59.903Z,-3.49
2022-12-12T22:51:32.540Z,-3.48
2022-12-12T22:54:01.735Z,-3.51
2022-12-12T22:56:29.904Z,-3.52
2022-12-12T22:58:56.539Z,-3.54
2022-12-12T23:01:24.715Z,-3.55
2022-12-12T23:03:53.250Z,-3.58
2022-12-12T23:06:25.782Z,-3.61
2022-12-12T23:08:57.954Z,-3.64
2022-12-12T23:11:26.493Z,-3.65
2022-12-12T23:14:00.392Z,-3.64
2022-12-12T23:16:31.119Z,-3.69
2022-12-12T23:18:58.976Z,-3.67
2022-12-12T23:21:26.209Z,-3.68
2022-12-12T23:23:54.214Z,-3.69
2022-12-12T23:26:24.981Z,-3.71
2022-12-12T23:28:51.898Z,-3.75
2022-12-12T23:31:25.971Z,-3.75
2022-12-12T23:33:54.457Z,-3.78
2022-12-12T23:36:22.149Z,-3.80
2022-12-12T23:38:49.170Z,-3.82
2022-12-12T23:41:16.619Z,-3.82
2022-12-12T23:43:44.513Z,-3.83
2022-12-12T23:46:28.960Z,-3.84
2022-12-12T23:49:00.872Z,-3.84
2022-12-12T23:51:29.727Z,-3.86
2022-12-12T23:53:58.224Z,-3.87
2022-12-12T23:56:25.733Z,-3.89
2022-12-12T23:58:53.725Z,-3.90
